createdAt,value
2023-01-21T00:00:01.302Z,6.57
2023-01-21T00:01:01.246Z,6.63
2023-01-21T00:02:01.891Z,5.33
2023-01-21T00:03:01.589Z,6.07
2023-01-21T00:04:01.248Z,6.80
2023-01-21T00:05:01.252Z,5.47
2023-01-21T00:06:03.387Z,6.57
2023-01-21T00:07:01.600Z,6.33
2023-01-21T00:08:02.731Z,6.50
2023-01-21T00:09:01.802Z,6.33
2023-01-21T00:10:01.600Z,5.63
2023-01-21T00:11:04.973Z,7.00
2023-01-21T00:12:02.011Z,7.00
2023-01-21T00:13:01.780Z,7.33
2023-01-21T00:14:01.252Z,6.13
2023-01-21T00:15:01.633Z,6.00
2023-01-21T00:16:02.142Z,6.60
2023-01-21T00:17:01.594Z,6.63
2023-01-21T00:18:01.582Z,8.37
2023-01-21T00:19:01.272Z,6.83
2023-01-21T00:20:02.455Z,5.53
2023-01-21T00:21:01.417Z,7.47
2023-01-21T00:22:01.301Z,6.73
2023-01-21T00:23:02.686Z,6.77
2023-01-21T00:24:02.375Z,6.77
2023-01-21T00:25:01.667Z,6.97
2023-01-21T00:26:04.472Z,7.57
2023-01-21T00:27:01.822Z,8.30
2023-01-21T00:28:01.607Z,7.00
2023-01-21T00:29:01.627Z,5.47
2023-01-21T00:30:01.620Z,5.70
2023-01-21T00:31:03.533Z,6.80
2023-01-21T00:32:01.332Z,6.53
2023-01-21T00:33:01.228Z,7.17
2023-01-21T00:34:01.234Z,6.00
2023-01-21T00:35:01.519Z,6.67
2023-01-21T00:36:03.800Z,6.40
2023-01-21T00:37:01.652Z,5.90
2023-01-21T00:38:01.573Z,6.67
2023-01-21T00:39:01.589Z,6.40
2023-01-21T00:40:01.583Z,6.73
2023-01-21T00:41:03.471Z,6.80
2023-01-21T00:42:01.686Z,6.37
2023-01-21T00:43:01.625Z,6.90
2023-01-21T00:44:01.269Z,7.37
2023-01-21T00:45:01.773Z,7.07
2023-01-21T00:46:01.845Z,6.47
2023-01-21T00:47:01.227Z,5.93
2023-01-21T00:48:01.386Z,6.70
2023-01-21T00:49:01.490Z,7.03
2023-01-21T00:50:01.726Z,6.90
2023-01-21T00:51:02.005Z,6.87
2023-01-21T00:52:01.928Z,5.80
2023-01-21T00:53:01.238Z,7.00
2023-01-21T00:54:02.388Z,6.80
2023-01-21T00:55:01.994Z,6.50
2023-01-21T00:56:03.961Z,6.07
2023-01-21T00:57:01.716Z,9.47
2023-01-21T00:58:01.274Z,6.20
2023-01-21T00:59:01.580Z,6.20
2023-01-21T01:00:01.589Z,6.60
2023-01-21T01:01:02.588Z,6.83
2023-01-21T01:02:01.604Z,6.77
2023-01-21T01:03:01.336Z,7.03
2023-01-21T01:04:02.133Z,6.80
2023-01-21T01:05:01.249Z,7.10
2023-01-21T01:06:03.198Z,8.37
2023-01-21T01:07:02.197Z,7.40
2023-01-21T01:08:01.549Z,8.40
2023-01-21T01:09:01.318Z,8.83
2023-01-21T01:10:01.683Z,7.17
2023-01-21T01:11:02.101Z,7.67
2023-01-21T01:12:01.268Z,7.83
2023-01-21T01:13:02.000Z,6.00
2023-01-21T01:14:02.239Z,7.67
2023-01-21T01:15:01.250Z,8.43
2023-01-21T01:16:02.515Z,6.97
2023-01-21T01:17:01.605Z,7.10
2023-01-21T01:18:01.758Z,9.03
2023-01-21T01:19:01.850Z,8.90
2023-01-21T01:20:01.480Z,6.63
2023-01-21T01:21:02.839Z,6.37
2023-01-21T01:22:01.226Z,8.60
2023-01-21T01:23:01.368Z,6.17
2023-01-21T01:24:01.767Z,6.37
2023-01-21T01:25:01.640Z,7.87
2023-01-21T01:26:04.470Z,6.73
2023-01-21T01:27:01.663Z,7.47
2023-01-21T01:28:01.230Z,6.70
2023-01-21T01:29:02.157Z,7.97
2023-01-21T01:30:01.554Z,6.80
2023-01-21T01:31:04.583Z,7.07
2023-01-21T01:32:01.587Z,6.63
2023-01-21T01:33:01.618Z,6.00
2023-01-21T01:34:01.591Z,5.73
2023-01-21T01:35:01.258Z,6.70
2023-01-21T01:36:01.832Z,6.07
2023-01-21T01:37:01.258Z,5.83
2023-01-21T01:38:01.583Z,4.90
2023-01-21T01:39:01.267Z,5.10
2023-01-21T01:40:01.588Z,5.67
2023-01-21T01:41:02.703Z,6.27
2023-01-21T01:42:01.227Z,5.03
2023-01-21T01:43:01.295Z,6.20
2023-01-21T01:44:03.863Z,6.00
2023-01-21T01:45:04.077Z,4.83
2023-01-21T01:46:01.803Z,5.33
2023-01-21T01:47:03.533Z,5.53
2023-01-21T01:48:03.528Z,6.67
2023-01-21T01:49:06.374Z,6.53
2023-01-21T01:50:04.304Z,6.73
2023-01-21T01:51:04.554Z,6.73
2023-01-21T01:52:05.359Z,7.40
2023-01-21T01:53:01.970Z,5.87
2023-01-21T01:54:02.392Z,6.13
2023-01-21T01:55:03.792Z,5.13
2023-01-21T01:56:02.305Z,4.03
2023-01-21T01:57:04.880Z,4.37
2023-01-21T01:58:05.215Z,5.10
2023-01-21T01:59:01.330Z,5.67
2023-01-21T02:00:04.975Z,5.70
2023-01-21T02:01:01.612Z,5.53
2023-01-21T02:02:06.303Z,5.70
2023-01-21T02:03:02.650Z,5.33
2023-01-21T02:04:09.397Z,5.73
2023-01-21T02:05:06.387Z,6.30
2023-01-21T02:06:02.105Z,5.10
2023-01-21T02:07:02.414Z,6.00
2023-01-21T02:08:01.877Z,5.13
2023-01-21T02:09:01.686Z,5.50
2023-01-21T02:10:02.264Z,6.03
2023-01-21T02:11:01.249Z,5.00
2023-01-21T02:12:03.967Z,6.13
2023-01-21T02:13:02.346Z,5.57
2023-01-21T02:14:02.868Z,5.00
2023-01-21T02:15:02.474Z,6.93
2023-01-21T02:16:16.085Z,6.70
2023-01-21T02:17:20.158Z,6.33
2023-01-21T02:18:13.605Z,8.53
2023-01-21T02:19:20.639Z,8.20
2023-01-21T02:20:20.634Z,7.37
2023-01-21T02:21:20.653Z,7.00
2023-01-21T02:22:12.458Z,7.50
2023-01-21T02:23:08.095Z,6.90
2023-01-21T02:24:20.649Z,7.23
2023-01-21T02:25:20.642Z,6.70
2023-01-21T02:26:20.434Z,7.00
2023-01-21T02:27:29.938Z,6.90
2023-01-21T02:28:20.648Z,6.70
2023-01-21T02:29:20.635Z,9.10
2023-01-21T02:30:20.633Z,8.00
2023-01-21T02:31:20.735Z,7.57
2023-01-21T02:32:21.650Z,7.83
2023-01-21T02:33:20.667Z,7.33
2023-01-21T02:34:12.827Z,6.50
2023-01-21T02:35:10.489Z,7.17
2023-01-21T02:36:09.918Z,9.33
2023-01-21T02:37:08.858Z,8.80
2023-01-21T02:38:08.185Z,7.27
2023-01-21T02:39:11.638Z,8.23
2023-01-21T02:40:09.687Z,8.70
2023-01-21T02:41:10.837Z,8.20
2023-01-21T02:42:06.187Z,7.77
2023-01-21T02:43:07.674Z,9.17
2023-01-21T02:44:09.452Z,7.13
2023-01-21T02:45:13.222Z,7.50
2023-01-21T02:46:09.138Z,7.17
2023-01-21T02:47:08.590Z,7.20
2023-01-21T02:48:07.832Z,7.33
2023-01-21T02:49:07.414Z,8.93
2023-01-21T02:50:07.949Z,8.13
2023-01-21T02:51:01.689Z,7.13
2023-01-21T02:52:02.629Z,8.80
2023-01-21T02:53:03.702Z,6.80
2023-01-21T02:54:13.325Z,7.63
2023-01-21T02:55:02.434Z,7.23
2023-01-21T02:56:05.664Z,7.33
2023-01-21T02:57:01.903Z,7.13
2023-01-21T02:58:07.214Z,7.67
2023-01-21T02:59:03.773Z,6.77
2023-01-21T03:00:05.274Z,7.23
2023-01-21T03:01:16.993Z,7.27
2023-01-21T03:02:12.347Z,5.40
2023-01-21T03:03:20.644Z,5.47
2023-01-21T03:04:19.251Z,6.70
2023-01-21T03:05:10.022Z,6.03
2023-01-21T03:06:20.642Z,5.43
2023-01-21T03:07:12.092Z,6.67
2023-01-21T03:08:08.424Z,6.47
2023-01-21T03:09:11.096Z,5.87
2023-01-21T03:10:08.575Z,6.20
2023-01-21T03:11:09.440Z,5.17
2023-01-21T03:12:14.388Z,6.27
2023-01-21T03:13:06.584Z,5.23
2023-01-21T03:14:10.305Z,5.77
2023-01-21T03:15:06.277Z,6.00
2023-01-21T03:16:05.382Z,4.77
2023-01-21T03:17:06.286Z,6.00
2023-01-21T03:18:07.642Z,4.27
2023-01-21T03:19:06.473Z,6.00
2023-01-21T03:20:07.866Z,5.67
2023-01-21T03:21:05.925Z,5.70
2023-01-21T03:22:05.285Z,6.97
2023-01-21T03:23:05.198Z,5.07
2023-01-21T03:24:02.179Z,5.77
2023-01-21T03:25:02.810Z,6.10
2023-01-21T03:26:03.627Z,7.77
2023-01-21T03:27:04.972Z,6.37
2023-01-21T03:28:07.770Z,7.07
2023-01-21T03:29:07.313Z,6.00
2023-01-21T03:30:07.799Z,6.70
2023-01-21T03:31:06.847Z,4.87
2023-01-21T03:32:06.502Z,5.77
2023-01-21T03:33:03.467Z,6.23
2023-01-21T03:34:06.041Z,7.17
2023-01-21T03:35:04.968Z,5.70
2023-01-21T03:36:08.972Z,7.10
2023-01-21T03:37:06.964Z,7.37
2023-01-21T03:38:08.333Z,6.47
2023-01-21T03:39:10.149Z,9.83
2023-01-21T03:40:11.331Z,7.13
2023-01-21T03:41:08.280Z,6.20
2023-01-21T03:42:02.413Z,6.90
2023-01-21T03:43:02.423Z,7.43
2023-01-21T03:44:01.441Z,7.00
2023-01-21T03:45:02.022Z,6.40
2023-01-21T03:46:06.688Z,6.03
2023-01-21T03:47:08.677Z,5.87
2023-01-21T03:48:09.917Z,6.97
2023-01-21T03:49:10.367Z,6.10
2023-01-21T03:50:06.844Z,7.27
2023-01-21T03:51:07.737Z,5.53
2023-01-21T03:52:05.038Z,7.53
2023-01-21T03:53:02.124Z,7.80
2023-01-21T03:54:01.935Z,6.17
2023-01-21T03:55:01.668Z,7.20
2023-01-21T03:56:01.235Z,6.80
2023-01-21T03:57:01.272Z,6.83
2023-01-21T03:58:02.172Z,5.73
2023-01-21T03:59:01.653Z,8.17
2023-01-21T04:00:01.531Z,6.20
2023-01-21T04:01:01.337Z,7.23
2023-01-21T04:02:01.325Z,6.17
2023-01-21T04:03:01.767Z,7.37
2023-01-21T04:04:01.302Z,6.73
2023-01-21T04:05:01.684Z,6.50
2023-01-21T04:06:01.261Z,5.77
2023-01-21T04:07:01.239Z,5.37
2023-01-21T04:08:01.397Z,6.00
2023-01-21T04:09:01.906Z,5.93
2023-01-21T04:10:01.240Z,5.83
2023-01-21T04:11:01.240Z,4.70
2023-01-21T04:12:01.264Z,4.00
2023-01-21T04:13:01.683Z,4.07
2023-01-21T04:14:01.565Z,4.93
2023-01-21T04:15:04.220Z,5.00
2023-01-21T04:16:01.976Z,5.20
2023-01-21T04:17:01.608Z,4.00
2023-01-21T04:18:01.254Z,4.10
2023-01-21T04:19:01.264Z,3.90
2023-01-21T04:20:01.279Z,3.13
2023-01-21T04:21:01.316Z,4.97
2023-01-21T04:22:01.726Z,4.37
2023-01-21T04:23:01.264Z,4.03
2023-01-21T04:24:01.586Z,4.40
2023-01-21T04:25:01.998Z,3.60
2023-01-21T04:26:01.644Z,4.43
2023-01-21T04:27:01.905Z,4.00
2023-01-21T04:28:01.233Z,4.10
2023-01-21T04:29:03.669Z,3.30
2023-01-21T04:30:01.673Z,4.03
2023-01-21T04:31:01.681Z,3.77
2023-01-21T04:32:01.683Z,4.23
2023-01-21T04:33:01.568Z,3.50
2023-01-21T04:34:02.117Z,3.57
2023-01-21T04:35:01.235Z,3.10
2023-01-21T04:36:01.687Z,4.00
2023-01-21T04:37:01.609Z,3.00
2023-01-21T04:38:02.160Z,3.00
2023-01-21T04:39:02.086Z,2.97
2023-01-21T04:40:01.274Z,2.80
2023-01-21T04:41:01.634Z,4.00
2023-01-21T04:42:01.634Z,3.07
2023-01-21T04:43:01.556Z,3.93
2023-01-21T04:44:01.973Z,2.90
2023-01-21T04:45:01.255Z,3.23
2023-01-21T04:46:01.439Z,3.43
2023-01-21T04:47:01.525Z,2.90
2023-01-21T04:48:01.633Z,4.43
2023-01-21T04:49:01.700Z,3.57
2023-01-21T04:50:01.260Z,2.87
2023-01-21T04:51:01.971Z,2.40
2023-01-21T04:52:01.314Z,3.00
2023-01-21T04:53:01.773Z,4.37
2023-01-21T04:54:01.474Z,2.57
2023-01-21T04:55:01.603Z,2.97
2023-01-21T04:56:02.299Z,3.00
2023-01-21T04:57:01.255Z,3.00
2023-01-21T04:58:01.442Z,3.37
2023-01-21T04:59:01.250Z,3.97
2023-01-21T05:00:02.260Z,4.30
2023-01-21T05:01:01.632Z,2.63
2023-01-21T05:02:01.326Z,3.60
2023-01-21T05:03:01.243Z,3.40
2023-01-21T05:04:01.625Z,2.43
2023-01-21T05:05:01.744Z,3.00
2023-01-21T05:06:01.266Z,3.13
2023-01-21T05:07:01.251Z,2.57
2023-01-21T05:08:01.420Z,4.27
2023-01-21T05:09:01.375Z,2.17
2023-01-21T05:10:01.842Z,2.37
2023-01-21T05:11:01.785Z,3.43
2023-01-21T05:12:01.241Z,3.80
2023-01-21T05:13:01.916Z,3.10
2023-01-21T05:14:01.256Z,3.23
2023-01-21T05:15:01.246Z,3.13
2023-01-21T05:16:04.186Z,3.73
2023-01-21T05:17:01.800Z,4.10
2023-01-21T05:18:01.686Z,2.43
2023-01-21T05:19:02.007Z,2.90
2023-01-21T05:20:01.388Z,3.93
2023-01-21T05:21:01.620Z,3.00
2023-01-21T05:22:01.292Z,4.00
2023-01-21T05:23:01.711Z,4.10
2023-01-21T05:24:01.308Z,3.90
2023-01-21T05:25:01.260Z,3.20
2023-01-21T05:26:01.300Z,2.70
2023-01-21T05:27:02.018Z,3.20
2023-01-21T05:28:01.619Z,4.10
2023-01-21T05:29:01.677Z,3.33
2023-01-21T05:30:01.642Z,2.17
2023-01-21T05:31:03.521Z,3.30
2023-01-21T05:32:01.465Z,3.63
2023-01-21T05:33:01.379Z,3.77
2023-01-21T05:34:01.633Z,4.03
2023-01-21T05:35:01.730Z,4.70
2023-01-21T05:36:03.086Z,4.60
2023-01-21T05:37:01.634Z,3.17
2023-01-21T05:38:01.242Z,3.33
2023-01-21T05:39:01.265Z,4.00
2023-01-21T05:40:01.683Z,4.13
2023-01-21T05:41:03.284Z,4.00
2023-01-21T05:42:02.169Z,3.00
2023-01-21T05:43:01.236Z,4.00
2023-01-21T05:44:01.242Z,4.37
2023-01-21T05:45:01.279Z,3.03
2023-01-21T05:46:01.471Z,3.23
2023-01-21T05:47:01.289Z,3.47
2023-01-21T05:48:01.250Z,3.90
2023-01-21T05:49:01.714Z,3.73
2023-01-21T05:50:01.298Z,4.43
2023-01-21T05:51:01.800Z,3.83
2023-01-21T05:52:01.247Z,4.10
2023-01-21T05:53:01.534Z,3.90
2023-01-21T05:54:02.599Z,3.03
2023-01-21T05:55:02.826Z,3.70
2023-01-21T05:56:01.795Z,4.07
2023-01-21T05:57:01.236Z,4.87
2023-01-21T05:58:01.264Z,4.27
2023-01-21T05:59:01.650Z,3.23
2023-01-21T06:00:01.708Z,5.50
2023-01-21T06:01:01.741Z,3.80
2023-01-21T06:02:01.379Z,4.17
2023-01-21T06:03:02.144Z,4.27
2023-01-21T06:04:02.100Z,3.90
2023-01-21T06:05:01.577Z,3.47
2023-01-21T06:06:01.613Z,3.60
2023-01-21T06:07:02.638Z,4.33
2023-01-21T06:08:01.284Z,3.47
2023-01-21T06:09:01.605Z,4.00
2023-01-21T06:10:01.579Z,4.13
2023-01-21T06:11:01.627Z,4.00
2023-01-21T06:12:01.775Z,3.87
2023-01-21T06:13:01.291Z,4.00
2023-01-21T06:14:01.593Z,4.30
2023-01-21T06:15:01.544Z,5.03
2023-01-21T06:16:01.652Z,4.33
2023-01-21T06:17:01.600Z,5.30
2023-01-21T06:18:01.293Z,4.10
2023-01-21T06:19:01.241Z,4.13
2023-01-21T06:20:01.611Z,4.37
2023-01-21T06:21:01.747Z,5.17
2023-01-21T06:22:01.323Z,4.40
2023-01-21T06:23:02.592Z,4.47
2023-01-21T06:24:01.247Z,5.47
2023-01-21T06:25:01.326Z,5.10
2023-01-21T06:26:02.804Z,4.27
2023-01-21T06:27:01.242Z,4.37
2023-01-21T06:28:01.318Z,3.93
2023-01-21T06:29:01.252Z,4.00
2023-01-21T06:30:01.270Z,5.07
2023-01-21T06:31:01.309Z,6.00
2023-01-21T06:32:01.751Z,5.03
2023-01-21T06:33:01.630Z,5.00
2023-01-21T06:34:01.249Z,5.00
2023-01-21T06:35:02.240Z,3.87
2023-01-21T06:36:01.274Z,4.53
2023-01-21T06:37:02.060Z,4.63
2023-01-21T06:38:01.247Z,5.10
2023-01-21T06:39:01.248Z,4.63
2023-01-21T06:40:01.388Z,3.93
2023-01-21T06:41:02.244Z,5.23
2023-01-21T06:42:01.606Z,4.60
2023-01-21T06:43:01.676Z,4.87
2023-01-21T06:44:01.355Z,4.43
2023-01-21T06:45:01.286Z,4.23
2023-01-21T06:46:01.749Z,3.13
2023-01-21T06:47:02.170Z,3.87
2023-01-21T06:48:01.531Z,2.83
2023-01-21T06:49:01.741Z,3.47
2023-01-21T06:50:01.244Z,4.17
2023-01-21T06:51:01.854Z,3.77
2023-01-21T06:52:01.643Z,3.10
2023-01-21T06:53:01.632Z,3.17
2023-01-21T06:54:01.278Z,3.33
2023-01-21T06:55:02.112Z,3.97
2023-01-21T06:56:01.368Z,2.60
2023-01-21T06:57:01.659Z,3.43
2023-01-21T06:58:01.688Z,3.40
2023-01-21T06:59:01.678Z,3.87
2023-01-21T07:00:01.284Z,3.53
2023-01-21T07:01:01.239Z,3.63
2023-01-21T07:02:01.822Z,3.53
2023-01-21T07:03:01.308Z,4.00
2023-01-21T07:04:01.709Z,2.83
2023-01-21T07:05:01.777Z,2.47
2023-01-21T07:06:01.964Z,3.00
2023-01-21T07:07:01.271Z,3.00
2023-01-21T07:08:01.668Z,2.23
2023-01-21T07:09:01.263Z,2.87
2023-01-21T07:10:02.371Z,3.10
2023-01-21T07:11:01.311Z,2.90
2023-01-21T07:12:01.632Z,2.53
2023-01-21T07:13:01.982Z,3.07
2023-01-21T07:14:01.954Z,3.00
2023-01-21T07:15:01.490Z,3.00
2023-01-21T07:16:02.018Z,3.00
2023-01-21T07:17:01.616Z,2.13
2023-01-21T07:18:01.282Z,2.63
2023-01-21T07:19:01.648Z,2.90
2023-01-21T07:20:01.247Z,2.80
2023-01-21T07:21:01.991Z,2.90
2023-01-21T07:22:01.702Z,2.73
2023-01-21T07:23:01.596Z,3.00
2023-01-21T07:24:01.905Z,3.50
2023-01-21T07:25:01.494Z,2.90
2023-01-21T07:26:01.234Z,3.20
2023-01-21T07:27:01.219Z,3.57
2023-01-21T07:28:01.632Z,2.73
2023-01-21T07:29:02.016Z,3.00
2023-01-21T07:30:02.372Z,2.70
2023-01-21T07:31:03.043Z,3.07
2023-01-21T07:32:01.699Z,2.43
2023-01-21T07:33:04.325Z,2.87
2023-01-21T07:34:02.395Z,3.20
2023-01-21T07:35:01.573Z,2.97
2023-01-21T07:36:01.709Z,1.73
2023-01-21T07:37:01.593Z,2.23
2023-01-21T07:38:01.906Z,2.00
2023-01-21T07:39:01.649Z,2.57
2023-01-21T07:40:01.226Z,2.70
2023-01-21T07:41:01.284Z,1.87
2023-01-21T07:42:01.237Z,2.47
2023-01-21T07:43:01.688Z,3.00
2023-01-21T07:44:01.240Z,4.37
2023-01-21T07:45:01.629Z,2.73
2023-01-21T07:46:01.703Z,2.53
2023-01-21T07:47:01.236Z,2.50
2023-01-21T07:48:01.642Z,2.20
2023-01-21T07:49:01.263Z,2.60
2023-01-21T07:50:01.267Z,2.47
2023-01-21T07:51:01.363Z,2.30
2023-01-21T07:52:01.946Z,1.80
2023-01-21T07:53:01.646Z,2.00
2023-01-21T07:54:01.577Z,1.37
2023-01-21T07:55:01.716Z,2.87
2023-01-21T07:56:03.393Z,2.40
2023-01-21T07:57:01.263Z,1.63
2023-01-21T07:58:01.243Z,1.27
2023-01-21T07:59:01.243Z,2.33
2023-01-21T08:00:01.632Z,2.00
2023-01-21T08:01:03.687Z,1.90
2023-01-21T08:02:01.891Z,1.47
2023-01-21T08:03:01.224Z,2.00
2023-01-21T08:04:01.327Z,1.70
2023-01-21T08:05:01.536Z,1.53
2023-01-21T08:06:01.248Z,1.90
2023-01-21T08:07:01.586Z,2.23
2023-01-21T08:08:01.248Z,2.43
2023-01-21T08:09:01.585Z,2.00
2023-01-21T08:10:02.247Z,2.00
2023-01-21T08:11:01.247Z,2.10
2023-01-21T08:12:02.795Z,2.37
2023-01-21T08:13:01.237Z,1.90
2023-01-21T08:14:01.944Z,1.43
2023-01-21T08:15:01.619Z,1.37
2023-01-21T08:16:02.766Z,2.00
2023-01-21T08:17:01.652Z,2.03
2023-01-21T08:18:01.476Z,2.00
2023-01-21T08:19:01.229Z,3.47
2023-01-21T08:20:01.586Z,2.20
2023-01-21T08:21:01.602Z,2.00
2023-01-21T08:22:01.275Z,2.93
2023-01-21T08:23:01.602Z,2.13
2023-01-21T08:24:01.257Z,3.27
2023-01-21T08:25:01.637Z,2.57
2023-01-21T08:26:02.866Z,2.90
2023-01-21T08:27:01.600Z,2.00
2023-01-21T08:28:01.596Z,2.03
2023-01-21T08:29:01.256Z,2.90
2023-01-21T08:30:01.643Z,3.20
2023-01-21T08:31:04.178Z,2.17
2023-01-21T08:32:01.739Z,2.17
2023-01-21T08:33:01.464Z,2.77
2023-01-21T08:34:01.684Z,2.83
2023-01-21T08:35:01.243Z,3.57
2023-01-21T08:36:03.216Z,3.03
2023-01-21T08:37:01.606Z,3.47
2023-01-21T08:38:01.729Z,3.10
2023-01-21T08:39:01.247Z,2.90
2023-01-21T08:40:01.595Z,3.87
2023-01-21T08:41:01.752Z,3.53
2023-01-21T08:42:01.614Z,3.10
2023-01-21T08:43:03.583Z,3.47
2023-01-21T08:44:01.408Z,3.27
2023-01-21T08:45:01.618Z,3.77
2023-01-21T08:46:02.152Z,3.77
2023-01-21T08:47:01.382Z,2.93
2023-01-21T08:48:02.657Z,3.30
2023-01-21T08:49:01.936Z,4.20
2023-01-21T08:50:01.676Z,4.20
2023-01-21T08:51:01.658Z,2.97
2023-01-21T08:52:01.254Z,3.03
2023-01-21T08:53:01.264Z,3.30
2023-01-21T08:54:01.829Z,3.00
2023-01-21T08:55:01.680Z,3.00
2023-01-21T08:56:03.514Z,3.13
2023-01-21T08:57:01.599Z,3.73
2023-01-21T08:58:02.015Z,3.30
2023-01-21T08:59:01.605Z,3.10
2023-01-21T09:00:01.662Z,4.00
2023-01-21T09:01:07.169Z,2.87
2023-01-21T09:02:02.312Z,3.17
2023-01-21T09:03:01.589Z,2.63
2023-01-21T09:04:01.682Z,2.80
2023-01-21T09:05:01.279Z,2.70
2023-01-21T09:06:03.512Z,3.57
2023-01-21T09:07:01.609Z,3.10
2023-01-21T09:08:01.222Z,2.47
2023-01-21T09:09:01.417Z,2.57
2023-01-21T09:10:01.302Z,2.77
2023-01-21T09:11:03.382Z,3.00
2023-01-21T09:12:01.256Z,2.57
2023-01-21T09:13:04.375Z,2.37
2023-01-21T09:14:01.276Z,2.50
2023-01-21T09:15:01.254Z,1.90
2023-01-21T09:16:01.269Z,1.60
2023-01-21T09:17:01.264Z,2.10
2023-01-21T09:18:01.787Z,1.70
2023-01-21T09:19:02.662Z,1.83
2023-01-21T09:20:01.600Z,1.80
2023-01-21T09:21:02.749Z,1.90
2023-01-21T09:22:01.741Z,1.63
2023-01-21T09:23:01.234Z,1.67
2023-01-21T09:24:01.662Z,1.73
2023-01-21T09:25:01.229Z,2.20
2023-01-21T09:26:03.772Z,1.00
2023-01-21T09:27:01.230Z,1.43
2023-01-21T09:28:01.223Z,0.93
2023-01-21T09:29:02.039Z,1.47
2023-01-21T09:30:01.246Z,1.00
2023-01-21T09:31:04.194Z,0.90
2023-01-21T09:32:02.185Z,0.63
2023-01-21T09:33:01.720Z,1.47
2023-01-21T09:34:03.764Z,1.00
2023-01-21T09:35:01.747Z,0.73
2023-01-21T09:36:04.470Z,1.00
2023-01-21T09:37:01.254Z,0.90
2023-01-21T09:38:01.239Z,0.37
2023-01-21T09:39:02.146Z,0.70
2023-01-21T09:40:01.226Z,0.23
2023-01-21T09:41:11.449Z,1.00
2023-01-21T09:42:01.859Z,0.13
2023-01-21T09:43:10.682Z,0.23
2023-01-21T09:44:11.299Z,0.00
2023-01-21T09:45:03.172Z,0.00
2023-01-21T09:46:07.109Z,0.00
2023-01-21T09:47:05.810Z,0.53
2023-01-21T09:48:03.856Z,0.87
2023-01-21T09:49:04.766Z,0.90
2023-01-21T09:50:05.720Z,0.17
2023-01-21T09:51:07.298Z,0.30
2023-01-21T09:52:13.278Z,0.00
2023-01-21T09:53:13.840Z,0.00
2023-01-21T09:54:03.908Z,1.00
2023-01-21T09:55:03.726Z,0.33
2023-01-21T09:56:11.460Z,0.63
2023-01-21T09:57:20.642Z,1.00
2023-01-21T09:58:17.638Z,0.57
2023-01-21T09:59:07.859Z,0.63
2023-01-21T10:00:20.502Z,0.00
2023-01-21T10:01:08.373Z,0.37
2023-01-21T10:02:08.652Z,0.00
2023-01-21T10:03:12.490Z,0.27
2023-01-21T10:04:16.431Z,0.20
2023-01-21T10:05:20.644Z,0.00
2023-01-21T10:06:18.252Z,0.10
2023-01-21T10:07:08.888Z,0.43
2023-01-21T10:08:10.635Z,0.03
2023-01-21T10:09:20.681Z,0.00
2023-01-21T10:10:14.289Z,0.43
2023-01-21T10:11:13.227Z,0.00
2023-01-21T10:12:16.819Z,0.00
2023-01-21T10:13:17.819Z,0.00
2023-01-21T10:14:16.903Z,0.63
2023-01-21T10:15:20.652Z,0.43
2023-01-21T10:16:09.631Z,0.73
2023-01-21T10:17:08.898Z,2.00
2023-01-21T10:18:07.248Z,2.00
2023-01-21T10:19:04.509Z,2.10
2023-01-21T10:20:12.450Z,2.53
2023-01-21T10:21:10.123Z,2.77
2023-01-21T10:22:07.929Z,2.07
2023-01-21T10:23:07.030Z,6.63
2023-01-21T10:24:06.037Z,6.13
2023-01-21T10:25:07.106Z,11.83
2023-01-21T10:26:07.715Z,9.30
2023-01-21T10:27:01.628Z,7.83
2023-01-21T10:28:09.681Z,1.43
2023-01-21T10:29:01.870Z,1.00
2023-01-21T10:30:08.422Z,0.53
2023-01-21T10:31:09.135Z,0.13
2023-01-21T10:32:04.690Z,0.37
2023-01-21T10:33:01.723Z,1.27
2023-01-21T10:34:07.019Z,1.50
2023-01-21T10:35:01.576Z,1.47
2023-01-21T10:36:18.680Z,1.20
2023-01-21T10:37:10.621Z,0.97
2023-01-21T10:38:08.374Z,0.00
2023-01-21T10:39:12.088Z,0.00
2023-01-21T10:40:09.410Z,0.33
2023-01-21T10:41:17.106Z,0.33
2023-01-21T10:42:16.976Z,0.00
2023-01-21T10:43:07.315Z,0.00
2023-01-21T10:44:14.645Z,0.33
2023-01-21T10:45:13.124Z,0.00
2023-01-21T10:46:13.610Z,0.00
2023-01-21T10:47:13.297Z,0.00
2023-01-21T10:48:10.173Z,0.00
2023-01-21T10:49:14.978Z,0.87
2023-01-21T10:50:13.857Z,0.83
2023-01-21T10:51:12.313Z,0.40
2023-01-21T10:52:08.575Z,0.00
2023-01-21T10:53:12.699Z,0.80
2023-01-21T10:54:06.167Z,0.00
2023-01-21T10:55:14.935Z,0.00
2023-01-21T10:56:14.439Z,0.10
2023-01-21T10:57:12.163Z,0.00
2023-01-21T10:58:04.618Z,0.00
2023-01-21T10:59:05.964Z,0.00
2023-01-21T11:00:04.290Z,0.00
2023-01-21T11:01:06.435Z,0.67
2023-01-21T11:02:09.576Z,1.10
2023-01-21T11:03:10.793Z,0.83
2023-01-21T11:04:06.894Z,1.00
2023-01-21T11:05:04.260Z,1.40
2023-01-21T11:06:03.576Z,1.53
2023-01-21T11:07:04.302Z,1.00
2023-01-21T11:08:02.010Z,1.00
2023-01-21T11:09:04.541Z,1.87
2023-01-21T11:10:04.414Z,1.00
2023-01-21T11:11:03.222Z,0.00
2023-01-21T11:12:01.807Z,0.00
2023-01-21T11:13:01.267Z,0.00
2023-01-21T11:14:02.036Z,0.10
2023-01-21T11:15:10.173Z,1.47
2023-01-21T11:16:02.506Z,1.00
2023-01-21T11:17:01.672Z,0.90
2023-01-21T11:18:20.638Z,0.00
2023-01-21T11:19:02.399Z,0.07
2023-01-21T11:20:05.971Z,1.00
2023-01-21T11:21:10.340Z,1.73
2023-01-21T11:22:03.695Z,2.00
2023-01-21T11:23:04.430Z,0.77
2023-01-21T11:24:03.605Z,1.37
2023-01-21T11:25:01.238Z,1.00
2023-01-21T11:26:04.583Z,1.00
2023-01-21T11:27:01.425Z,2.60
2023-01-21T11:28:02.078Z,1.23
2023-01-21T11:29:12.950Z,1.50
2023-01-21T11:30:01.683Z,2.57
2023-01-21T11:31:07.453Z,1.07
2023-01-21T11:32:05.205Z,1.17
2023-01-21T11:33:12.571Z,1.80
2023-01-21T11:34:10.923Z,1.60
2023-01-21T11:35:09.113Z,1.07
2023-01-21T11:36:11.541Z,2.00
2023-01-21T11:37:03.672Z,2.90
2023-01-21T11:38:01.336Z,1.60
2023-01-21T11:39:03.651Z,2.50
2023-01-21T11:40:05.150Z,3.20
2023-01-21T11:41:05.071Z,1.00
2023-01-21T11:42:06.093Z,2.43
2023-01-21T11:43:01.627Z,1.47
2023-01-21T11:44:16.373Z,0.73
2023-01-21T11:45:13.283Z,0.00
2023-01-21T11:46:20.699Z,0.80
2023-01-21T11:47:01.265Z,0.00
2023-01-21T11:48:11.864Z,0.00
2023-01-21T11:49:20.632Z,1.00
2023-01-21T11:50:12.170Z,1.80
2023-01-21T11:51:06.154Z,1.43
2023-01-21T11:52:13.339Z,0.43
2023-01-21T11:53:13.218Z,1.00
2023-01-21T11:54:12.356Z,0.83
2023-01-21T11:55:02.822Z,0.00
2023-01-21T11:56:02.863Z,0.10
2023-01-21T11:57:02.237Z,0.00
2023-01-21T11:58:01.403Z,0.47
2023-01-21T11:59:10.127Z,0.23
2023-01-21T12:00:16.292Z,1.00
2023-01-21T12:01:04.940Z,0.00
2023-01-21T12:02:06.739Z,0.83
2023-01-21T12:03:04.923Z,0.80
2023-01-21T12:04:02.641Z,0.80
2023-01-21T12:05:06.662Z,1.53
2023-01-21T12:06:02.102Z,1.43
2023-01-21T12:07:03.963Z,0.23
2023-01-21T12:08:04.241Z,0.00
2023-01-21T12:09:04.121Z,1.00
2023-01-21T12:10:07.760Z,1.00
2023-01-21T12:11:03.710Z,0.77
2023-01-21T12:12:20.643Z,0.53
2023-01-21T12:13:19.452Z,0.63
2023-01-21T12:14:14.919Z,0.33
2023-01-21T12:15:12.917Z,0.00
2023-01-21T12:16:20.731Z,7.23
2023-01-21T12:17:09.526Z,21.00
2023-01-21T12:18:16.309Z,2.37
2023-01-21T12:19:18.981Z,2.00
2023-01-21T12:20:15.889Z,1.00
2023-01-21T12:21:04.819Z,1.00
2023-01-21T12:22:18.860Z,0.00
2023-01-21T12:23:19.620Z,0.37
2023-01-21T12:24:15.077Z,0.00
2023-01-21T12:25:13.190Z,1.00
2023-01-21T12:26:14.637Z,0.10
2023-01-21T12:27:11.482Z,0.23
2023-01-21T12:28:16.447Z,0.60
2023-01-21T12:29:17.778Z,0.73
2023-01-21T12:30:15.066Z,0.10
2023-01-21T12:31:11.193Z,0.00
2023-01-21T12:32:08.740Z,0.00
2023-01-21T12:33:09.990Z,0.00
2023-01-21T12:34:09.757Z,0.00
2023-01-21T12:35:07.682Z,0.60
2023-01-21T12:36:08.439Z,0.00
2023-01-21T12:37:10.797Z,0.40
2023-01-21T12:38:09.517Z,0.00
2023-01-21T12:39:16.538Z,1.17
2023-01-21T12:40:13.981Z,0.33
2023-01-21T12:41:08.219Z,0.53
2023-01-21T12:42:08.906Z,0.00
2023-01-21T12:43:09.539Z,0.00
2023-01-21T12:44:17.224Z,0.10
2023-01-21T12:45:05.348Z,1.00
2023-01-21T12:46:09.204Z,1.97
2023-01-21T12:47:09.371Z,2.10
2023-01-21T12:48:07.014Z,2.33
2023-01-21T12:49:10.214Z,1.47
2023-01-21T12:50:20.634Z,1.00
2023-01-21T12:51:07.738Z,0.20
2023-01-21T12:52:10.766Z,0.33
2023-01-21T12:53:14.339Z,1.00
2023-01-21T12:54:09.280Z,1.00
2023-01-21T12:55:10.033Z,1.77
2023-01-21T12:56:11.870Z,3.17
2023-01-21T12:57:12.242Z,1.23
2023-01-21T12:58:05.011Z,0.70
2023-01-21T12:59:13.065Z,1.40
2023-01-21T13:00:09.234Z,2.00
2023-01-21T13:01:08.598Z,1.87
2023-01-21T13:02:13.831Z,1.67
2023-01-21T13:03:14.608Z,1.13
2023-01-21T13:04:15.177Z,0.30
2023-01-21T13:05:06.845Z,0.90
2023-01-21T13:06:08.314Z,0.90
2023-01-21T13:07:11.092Z,0.00
2023-01-21T13:08:15.452Z,0.00
2023-01-21T13:09:11.747Z,0.07
2023-01-21T13:10:13.065Z,0.13
2023-01-21T13:11:10.809Z,0.00
2023-01-21T13:12:10.724Z,0.73
2023-01-21T13:13:11.499Z,0.37
2023-01-21T13:14:19.083Z,0.37
2023-01-21T13:15:11.936Z,1.90
2023-01-21T13:16:07.266Z,2.37
2023-01-21T13:17:10.525Z,2.00
2023-01-21T13:18:10.846Z,1.33